Time;durP1;ratioP1;P1;durP2;ratioP2;P2;SDS_P1;SDS_P2;PMS_P1;PMS_P2;Temp;Humidity;BMP_temperature;BMP_pressure;BME280_temperature;BME280_humidity;BME280_pressure;Samples;Min_cycle;Max_cycle;Signal;HPM_P1;HPM_P2
2021/08/24 00:00:13;;;;;;;7.15;4.75;;;11.20;97.50;;;;;;5066157;28;20036;-72
2021/08/24 00:02:39;;;;;;;10.50;5.57;;;11.20;97.30;;;;;;5068822;28;20101;-72
2021/08/24 00:05:06;;;;;;;8.23;4.97;;;11.20;97.60;;;;;;5068963;28;20017;-72
2021/08/24 00:07:31;;;;;;;7.15;4.90;;;11.20;97.10;;;;;;5067577;28;20037;-72
2021/08/24 00:09:57;;;;;;;8.45;4.70;;;11.10;97.60;;;;;;5069997;28;20301;-72
2021/08/24 00:12:22;;;;;;;9.88;4.63;;;11.00;97.10;;;;;;5064642;28;20029;-73
2021/08/24 00:14:48;;;;;;;9.07;4.38;;;11.10;97.30;;;;;;5064493;28;20020;-73
2021/08/24 00:17:14;;;;;;;8.73;4.72;;;11.00;97.00;;;;;;5067751;28;20055;-73
2021/08/24 00:19:39;;;;;;;7.78;4.68;;;11.00;97.20;;;;;;5066128;28;20020;-73
2021/08/24 00:22:06;;;;;;;7.60;4.60;;;11.10;97.00;;;;;;5064799;28;20039;-73
2021/08/24 00:24:32;;;;;;;6.68;4.22;;;11.10;96.90;;;;;;5066098;28;20024;-73
2021/08/24 00:26:58;;;;;;;7.82;4.20;;;11.10;96.40;;;;;;5058314;28;20056;-73
2021/08/24 00:29:23;;;;;;;10.82;4.35;;;11.30;96.50;;;;;;5066810;28;20078;-73
2021/08/24 00:31:49;;;;;;;7.25;4.43;;;11.30;96.90;;;;;;5063924;28;20056;-73
2021/08/24 00:34:14;;;;;;;8.32;4.95;;;11.40;96.80;;;;;;5066521;28;20040;-73
2021/08/24 00:36:40;;;;;;;8.52;5.28;;;11.30;97.00;;;;;;5072140;28;20036;-73
2021/08/24 00:39:06;;;;;;;9.63;5.13;;;11.40;96.60;;;;;;5065915;28;20028;-73
2021/08/24 00:41:32;;;;;;;7.60;4.30;;;11.40;96.80;;;;;;5070130;28;20039;-73
2021/08/24 00:43:58;;;;;;;9.52;4.55;;;11.50;96.30;;;;;;5064647;28;20041;-74
2021/08/24 00:46:43;;;;;;;7.88;4.38;;;11.50;96.60;;;;;;5063343;28;20031;-74
2021/08/24 00:49:29;;;;;;;6.88;4.00;;;11.60;96.30;;;;;;5067012;28;20033;-73
2021/08/24 00:52:02;;;;;;;7.53;4.05;;;11.60;96.00;;;;;;5067367;28;20083;-73
2021/08/24 00:54:28;;;;;;;6.95;4.55;;;11.60;96.50;;;;;;5067509;28;20020;-73
2021/08/24 00:57:14;;;;;;;9.40;4.63;;;11.60;96.70;;;;;;5063265;28;20298;-74
2021/08/24 00:59:40;;;;;;;10.07;4.40;;;11.60;96.40;;;;;;5059492;28;20050;-73
2021/08/24 01:02:16;;;;;;;6.18;3.90;;;11.50;96.70;;;;;;5062791;28;20020;-73
2021/08/24 01:04:46;;;;;;;11.82;3.75;;;11.40;96.90;;;;;;5065011;28;20039;-73
2021/08/24 01:07:24;;;;;;;7.00;4.35;;;11.20;96.70;;;;;;5062391;28;20486;-73
2021/08/24 01:09:59;;;;;;;7.45;3.90;;;11.20;97.00;;;;;;5064484;28;20075;-73
2021/08/24 01:12:53;;;;;;;7.60;3.90;;;11.10;96.60;;;;;;5064796;28;20436;-73
2021/08/24 01:15:55;;;;;;;6.18;3.85;;;11.00;96.60;;;;;;5067555;28;20036;-73
2021/08/24 01:18:40;;;;;;;5.90;3.67;;;11.00;96.60;;;;;;5065315;28;20082;-73
2021/08/24 01:21:33;;;;;;;8.38;4.60;;;10.90;97.00;;;;;;5067749;28;20473;-73
2021/08/24 01:24:17;;;;;;;7.00;4.57;;;10.80;97.20;;;;;;5066375;28;20028;-73
2021/08/24 01:26:45;;;;;;;9.43;4.07;;;10.80;97.00;;;;;;5065184;28;21069;-74
2021/08/24 01:29:44;;;;;;;6.25;3.88;;;10.80;96.50;;;;;;5065768;28;20032;-73
2021/08/24 01:32:28;;;;;;;8.35;5.10;;;10.80;96.80;;;;;;5059387;28;20322;-73
2021/08/24 01:35:25;;;;;;;8.05;4.80;;;10.80;97.00;;;;;;5062634;28;20409;-74
2021/08/24 01:38:09;;;;;;;8.68;4.50;;;10.80;96.80;;;;;;5068244;28;21122;-73
2021/08/24 01:40:39;;;;;;;13.25;5.28;;;10.80;96.80;;;;;;5066147;28;20033;-74
2021/08/24 01:43:08;;;;;;;10.10;5.65;;;10.80;96.80;;;;;;5065833;28;20058;-73
2021/08/24 01:45:44;;;;;;;8.25;4.82;;;10.80;96.70;;;;;;5066884;28;20409;-73
2021/08/24 01:48:17;;;;;;;7.63;4.30;;;10.80;96.60;;;;;;5063509;28;20047;-72
2021/08/24 01:50:59;;;;;;;11.82;4.78;;;10.70;96.70;;;;;;5066678;28;20043;-73
2021/08/24 01:53:50;;;;;;;7.70;4.18;;;10.60;96.80;;;;;;5063290;28;20059;-73
2021/08/24 01:56:22;;;;;;;8.95;4.15;;;10.50;96.30;;;;;;5064238;28;20028;-73
2021/08/24 01:58:59;;;;;;;12.00;4.65;;;10.50;96.40;;;;;;5064911;28;20031;-73
2021/08/24 02:01:32;;;;;;;10.02;4.47;;;10.50;96.70;;;;;;5064365;28;20116;-73
2021/08/24 02:04:01;;;;;;;8.00;4.30;;;10.30;97.20;;;;;;5066382;28;20039;-73
2021/08/24 02:06:39;;;;;;;9.27;5.03;;;10.20;97.50;;;;;;5068484;28;20032;-73
2021/08/24 02:09:10;;;;;;;11.02;4.90;;;10.10;96.90;;;;;;5066476;28;20039;-73
2021/08/24 02:11:37;;;;;;;7.80;4.57;;;10.10;96.60;;;;;;5062819;28;20048;-72
2021/08/24 02:14:10;;;;;;;10.75;4.80;;;10.10;96.40;;;;;;5060179;28;20025;-73
2021/08/24 02:16:37;;;;;;;8.88;4.63;;;10.10;96.50;;;;;;5066962;28;20020;-73
2021/08/24 02:19:11;;;;;;;7.68;4.30;;;10.10;96.20;;;;;;5063083;28;20056;-73
2021/08/24 02:21:53;;;;;;;7.20;4.22;;;10.10;96.40;;;;;;5064062;28;20055;-74
2021/08/24 02:24:25;;;;;;;7.82;4.40;;;10.10;96.40;;;;;;5095290;23;20710;-73
2021/08/24 02:26:51;;;;;;;7.53;4.63;;;10.10;96.10;;;;;;5064933;28;20039;-73
2021/08/24 02:29:17;;;;;;;7.40;4.32;;;10.10;96.10;;;;;;5059399;28;20332;-73
2021/08/24 02:31:56;;;;;;;10.43;4.45;;;10.20;96.10;;;;;;5070394;28;20058;-73
2021/08/24 02:34:41;;;;;;;8.60;4.22;;;10.10;96.10;;;;;;5067280;28;20032;-73
2021/08/24 02:37:13;;;;;;;7.43;4.18;;;10.10;96.30;;;;;;5065395;28;20044;-73
2021/08/24 02:40:01;;;;;;;9.25;4.75;;;10.20;96.20;;;;;;5067075;28;20410;-73
2021/08/24 02:42:33;;;;;;;9.15;4.43;;;10.10;96.10;;;;;;5064842;28;20400;-73
2021/08/24 02:45:09;;;;;;;8.75;4.82;;;10.10;96.10;;;;;;5066917;28;20047;-73
2021/08/24 02:47:36;;;;;;;7.65;4.15;;;10.00;96.50;;;;;;5067672;28;20050;-73
2021/08/24 02:50:05;;;;;;;8.27;4.47;;;9.90;96.30;;;;;;5065985;28;20334;-73
2021/08/24 02:52:33;;;;;;;7.53;4.30;;;9.90;96.20;;;;;;5066244;28;20029;-73
2021/08/24 02:55:00;;;;;;;10.18;4.85;;;9.90;96.10;;;;;;5066204;28;20059;-73
2021/08/24 02:57:26;;;;;;;8.52;5.05;;;9.90;95.90;;;;;;5065436;28;20055;-73
2021/08/24 02:59:52;;;;;;;8.15;4.85;;;9.80;96.40;;;;;;5066279;28;20038;-73
2021/08/24 03:02:22;;;;;;;7.60;4.80;;;9.90;95.80;;;;;;5067244;28;20021;-73
2021/08/24 03:04:47;;;;;;;9.05;4.90;;;9.80;96.30;;;;;;5065679;28;20086;-73
2021/08/24 03:07:16;;;;;;;10.80;4.20;;;9.80;96.20;;;;;;5067635;28;20024;-73
2021/08/24 03:09:44;;;;;;;9.13;5.10;;;9.70;96.40;;;;;;5065586;28;20335;-73
2021/08/24 03:12:24;;;;;;;8.38;4.32;;;9.70;96.10;;;;;;5064946;28;20048;-72
2021/08/24 03:14:53;;;;;;;7.20;4.10;;;9.70;96.00;;;;;;5065222;28;20313;-73
2021/08/24 03:17:26;;;;;;;8.30;4.93;;;9.70;95.60;;;;;;5065966;28;20016;-74
2021/08/24 03:19:53;;;;;;;8.05;4.47;;;9.80;95.90;;;;;;5065632;28;20044;-73
2021/08/24 03:22:21;;;;;;;11.10;5.70;;;9.80;95.60;;;;;;5067459;28;20413;-73
2021/08/24 03:24:47;;;;;;;9.73;5.68;;;9.90;95.60;;;;;;5051712;28;20139;-73
2021/08/24 03:27:13;;;;;;;10.25;5.10;;;9.90;95.60;;;;;;5064211;28;20107;-73
2021/08/24 03:29:59;;;;;;;10.38;4.93;;;9.90;95.70;;;;;;5066493;28;20031;-73
2021/08/24 03:32:25;;;;;;;7.15;4.75;;;9.80;95.90;;;;;;5066060;28;20028;-73
2021/08/24 03:34:51;;;;;;;7.50;4.68;;;9.70;96.10;;;;;;5063098;28;20021;-73
2021/08/24 03:37:17;;;;;;;8.85;4.47;;;9.60;96.30;;;;;;5065986;28;20091;-73
2021/08/24 03:39:42;;;;;;;7.60;4.55;;;9.50;96.40;;;;;;5068300;28;20056;-73
2021/08/24 03:42:08;;;;;;;9.80;4.90;;;9.50;95.90;;;;;;5066334;28;20024;-72
2021/08/24 03:44:34;;;;;;;12.32;5.10;;;9.50;95.90;;;;;;5065697;28;20033;-73
2021/08/24 03:46:59;;;;;;;9.48;5.57;;;9.40;96.00;;;;;;5066539;28;20045;-73
2021/08/24 03:49:25;;;;;;;11.30;4.35;;;9.40;96.00;;;;;;5064810;28;20037;-73
2021/08/24 03:51:50;;;;;;;8.50;5.47;;;9.30;95.90;;;;;;5064633;28;20043;-72
2021/08/24 03:54:16;;;;;;;9.15;5.18;;;9.30;96.20;;;;;;5068422;28;20032;-74
2021/08/24 03:56:42;;;;;;;8.93;5.20;;;9.20;95.90;;;;;;5066187;28;20332;-73
2021/08/24 03:59:08;;;;;;;8.40;5.07;;;9.10;95.90;;;;;;5066718;28;20028;-73
2021/08/24 04:01:34;;;;;;;8.68;5.10;;;9.20;95.90;;;;;;5069793;28;20029;-73
2021/08/24 04:04:00;;;;;;;11.73;5.47;;;9.10;95.90;;;;;;5066449;28;20334;-73
2021/08/24 04:06:26;;;;;;;10.45;5.78;;;9.10;95.60;;;;;;5068502;28;20043;-73
2021/08/24 04:08:51;;;;;;;8.93;5.20;;;9.10;95.60;;;;;;5067895;28;20033;-73
2021/08/24 04:11:17;;;;;;;10.25;5.47;;;9.10;95.40;;;;;;5063836;28;20086;-73
2021/08/24 04:13:43;;;;;;;9.60;5.43;;;9.10;95.70;;;;;;5064985;28;20333;-73
2021/08/24 04:16:11;;;;;;;11.95;4.88;;;9.00;96.10;;;;;;5062258;28;20025;-73
2021/08/24 04:18:38;;;;;;;7.75;4.75;;;8.90;95.70;;;;;;5075811;28;20044;-73
2021/08/24 04:21:10;;;;;;;9.15;5.47;;;8.90;95.50;;;;;;5064962;28;20554;-73
2021/08/24 04:23:37;;;;;;;14.30;4.85;;;8.90;95.50;;;;;;5069453;28;20316;-73
2021/08/24 04:26:02;;;;;;;9.38;5.93;;;8.80;95.50;;;;;;5068574;28;20055;-74
2021/08/24 04:28:30;;;;;;;10.07;6.22;;;8.90;94.90;;;;;;5064107;28;20466;-73
2021/08/24 04:30:56;;;;;;;11.73;6.03;;;9.00;95.30;;;;;;5069665;28;20211;-74
2021/08/24 04:33:22;;;;;;;10.20;6.25;;;9.00;95.20;;;;;;5070209;28;20039;-73
2021/08/24 04:35:53;;;;;;;12.00;6.10;;;9.00;95.50;;;;;;5083737;28;20120;-73
2021/08/24 04:38:19;;;;;;;9.75;5.45;;;8.90;95.60;;;;;;5071074;28;20032;-73
2021/08/24 04:40:45;;;;;;;9.60;6.30;;;8.90;95.40;;;;;;5069123;28;20028;-73
2021/08/24 04:43:11;;;;;;;10.00;6.22;;;8.90;94.90;;;;;;5067948;28;20036;-73
2021/08/24 04:45:37;;;;;;;13.90;6.60;;;9.00;95.10;;;;;;5069512;28;20036;-73
2021/08/24 04:48:03;;;;;;;11.70;6.63;;;9.10;94.90;;;;;;5065559;28;20033;-73
2021/08/24 04:50:29;;;;;;;10.75;6.95;;;9.20;95.10;;;;;;5070333;28;20037;-73
2021/08/24 04:52:55;;;;;;;10.05;6.80;;;9.20;95.10;;;;;;5069546;28;20409;-73
2021/08/24 04:55:21;;;;;;;10.68;6.05;;;9.20;95.10;;;;;;5066516;28;20028;-73
2021/08/24 04:57:46;;;;;;;11.95;6.78;;;9.20;95.30;;;;;;5069258;28;20029;-73
2021/08/24 05:00:13;;;;;;;13.48;8.07;;;9.30;95.00;;;;;;5066922;28;20063;-73
2021/08/24 05:02:38;;;;;;;13.40;6.82;;;9.40;95.10;;;;;;5067340;28;20029;-73
2021/08/24 05:05:05;;;;;;;14.52;7.10;;;9.40;95.10;;;;;;5056408;28;20031;-73
2021/08/24 05:07:31;;;;;;;10.07;6.30;;;9.40;95.00;;;;;;5049777;28;20124;-73
2021/08/24 05:09:57;;;;;;;11.52;6.28;;;9.40;95.10;;;;;;5063466;28;20024;-73
2021/08/24 05:12:22;;;;;;;12.32;7.72;;;9.40;94.90;;;;;;5069936;28;20090;-73
2021/08/24 05:14:48;;;;;;;14.55;6.95;;;9.50;94.80;;;;;;5066817;28;20697;-74
2021/08/24 05:17:14;;;;;;;10.70;6.45;;;9.50;95.00;;;;;;5066363;28;20028;-74
2021/08/24 05:19:42;;;;;;;11.13;6.35;;;9.50;95.00;;;;;;5067944;28;20036;-73
2021/08/24 05:22:08;;;;;;;10.68;6.93;;;9.60;94.90;;;;;;5069070;28;20040;-73
2021/08/24 05:24:34;;;;;;;13.63;7.38;;;9.70;94.80;;;;;;5062110;28;20049;-74
2021/08/24 05:27:01;;;;;;;11.95;7.75;;;9.80;94.50;;;;;;5060219;28;20036;-74
2021/08/24 05:29:27;;;;;;;11.95;7.35;;;9.80;94.90;;;;;;5063469;28;20036;-74
2021/08/24 05:31:53;;;;;;;10.60;6.60;;;9.80;94.90;;;;;;5068130;28;20021;-73
2021/08/24 05:34:19;;;;;;;12.85;6.90;;;9.80;95.10;;;;;;5068275;28;20117;-73
2021/08/24 05:36:44;;;;;;;16.40;7.55;;;9.90;94.60;;;;;;5070402;28;20475;-73
2021/08/24 05:39:10;;;;;;;10.85;6.88;;;10.00;94.90;;;;;;5072393;28;20021;-72
2021/08/24 05:41:38;;;;;;;9.25;6.32;;;10.10;94.80;;;;;;5068042;28;20056;-73
2021/08/24 05:44:04;;;;;;;9.63;6.03;;;10.10;94.80;;;;;;5064911;28;20479;-73
2021/08/24 05:46:30;;;;;;;15.88;8.05;;;10.20;95.00;;;;;;5072469;28;20028;-73
2021/08/24 05:48:56;;;;;;;13.57;6.72;;;10.30;94.70;;;;;;5058670;28;20432;-73
2021/08/24 05:51:23;;;;;;;12.48;6.95;;;10.30;95.00;;;;;;5058426;28;20104;-74
2021/08/24 05:53:50;;;;;;;9.40;5.93;;;10.30;94.90;;;;;;5066848;28;20028;-73
2021/08/24 05:56:18;;;;;;;12.50;6.88;;;10.40;95.00;;;;;;5057154;28;20051;-73
2021/08/24 05:58:44;;;;;;;14.90;8.18;;;10.40;95.00;;;;;;5065266;28;20392;-73
2021/08/24 06:01:18;;;;;;;11.40;7.35;;;10.50;95.10;;;;;;5071938;28;20052;-73
2021/08/24 06:03:43;;;;;;;11.07;6.88;;;10.50;95.30;;;;;;5068480;28;20329;-73
2021/08/24 06:06:24;;;;;;;12.25;6.60;;;10.60;94.70;;;;;;5068223;28;20025;-73
2021/08/24 06:08:49;;;;;;;14.63;6.85;;;10.80;94.80;;;;;;5063911;28;20368;-73
2021/08/24 06:11:18;;;;;;;17.75;7.82;;;10.90;95.20;;;;;;5079189;28;20029;-72
2021/08/24 06:13:43;;;;;;;15.40;6.22;;;10.90;95.20;;;;;;5058038;28;20029;-73
2021/08/24 06:16:09;;;;;;;14.93;7.40;;;11.20;94.70;;;;;;5062703;28;20020;-73
2021/08/24 06:18:37;;;;;;;11.55;6.97;;;11.10;96.50;;;;;;5071926;28;20029;-73
2021/08/24 06:21:03;;;;;;;14.15;7.35;;;11.10;97.40;;;;;;5069727;28;20032;-73
2021/08/24 06:23:28;;;;;;;11.85;7.13;;;11.20;97.50;;;;;;5076572;28;20035;-73
2021/08/24 06:25:54;;;;;;;13.05;7.57;;;11.40;97.50;;;;;;5065733;28;20040;-73
2021/08/24 06:28:20;;;;;;;11.50;7.28;;;11.60;97.10;;;;;;5065286;28;20298;-73
2021/08/24 06:30:45;;;;;;;13.52;6.88;;;11.80;98.00;;;;;;5076463;28;20025;-73
2021/08/24 06:33:12;;;;;;;14.40;8.60;;;11.80;98.00;;;;;;5069760;28;20360;-74
2021/08/24 06:35:38;;;;;;;11.95;7.70;;;12.00;98.00;;;;;;5056121;28;20062;-73
2021/08/24 06:38:03;;;;;;;14.60;8.07;;;11.90;98.00;;;;;;5056400;28;20037;-72
2021/08/24 06:40:29;;;;;;;15.57;9.70;;;12.00;98.00;;;;;;5055557;28;20029;-73
2021/08/24 06:42:55;;;;;;;11.48;7.75;;;11.90;98.00;;;;;;5056369;28;20017;-73
2021/08/24 06:45:27;;;;;;;17.88;7.78;;;12.00;98.00;;;;;;5070781;28;20094;-73
2021/08/24 06:47:53;;;;;;;15.43;7.45;;;12.10;98.00;;;;;;5073685;28;20042;-73
2021/08/24 06:50:20;;;;;;;11.63;7.60;;;12.20;98.00;;;;;;5071693;28;20127;-73
2021/08/24 06:52:49;;;;;;;12.30;7.35;;;12.20;98.00;;;;;;5075240;28;20082;-73
2021/08/24 06:55:15;;;;;;;11.60;7.78;;;12.30;98.00;;;;;;5077024;28;20051;-73
2021/08/24 06:57:41;;;;;;;13.13;6.97;;;12.50;98.00;;;;;;5068568;28;20025;-74
2021/08/24 07:00:13;;;;;;;12.10;6.85;;;12.70;98.00;;;;;;5059959;28;20055;-73
2021/08/24 07:02:40;;;;;;;11.35;6.70;;;12.80;98.00;;;;;;5074743;28;20780;-73
2021/08/24 07:05:06;;;;;;;10.95;6.78;;;12.90;98.00;;;;;;5074994;28;20032;-72
2021/08/24 07:07:32;;;;;;;10.57;6.93;;;13.00;98.00;;;;;;5074798;28;20440;-73
2021/08/24 07:09:58;;;;;;;14.02;7.07;;;13.10;98.00;;;;;;5075506;28;20066;-75
2021/08/24 07:12:23;;;;;;;12.13;7.05;;;13.20;98.00;;;;;;5074461;28;20107;-73
2021/08/24 07:14:49;;;;;;;13.88;7.18;;;13.40;98.00;;;;;;5072591;28;20032;-72
2021/08/24 07:17:16;;;;;;;9.52;5.93;;;13.30;98.00;;;;;;5074596;28;20028;-72
2021/08/24 07:19:42;;;;;;;9.93;5.75;;;13.20;98.00;;;;;;5071451;28;20325;-73
2021/08/24 07:22:07;;;;;;;10.57;6.53;;;13.50;98.00;;;;;;5075633;28;20024;-73
2021/08/24 07:24:33;;;;;;;13.02;7.00;;;13.50;98.00;;;;;;5060033;28;20302;-72
2021/08/24 07:26:59;;;;;;;9.70;6.13;;;13.50;98.00;;;;;;5071480;28;20031;-73
2021/08/24 07:29:25;;;;;;;9.60;5.65;;;13.40;98.00;;;;;;5057293;28;20029;-72
2021/08/24 07:31:51;;;;;;;11.35;5.97;;;13.50;98.00;;;;;;5071110;28;20016;-73
2021/08/24 07:34:16;;;;;;;9.63;5.93;;;13.60;98.00;;;;;;5071207;28;20029;-72
2021/08/24 07:36:42;;;;;;;12.88;6.32;;;13.60;98.00;;;;;;5069309;28;20107;-72
2021/08/24 07:39:08;;;;;;;9.82;6.03;;;13.60;98.00;;;;;;5072059;28;20083;-73
2021/08/24 07:41:34;;;;;;;11.07;6.13;;;13.70;98.00;;;;;;5069305;28;20028;-73
2021/08/24 07:43:59;;;;;;;11.43;5.85;;;14.00;98.00;;;;;;5069354;28;20056;-73
2021/08/24 07:46:25;;;;;;;9.65;5.60;;;14.20;98.00;;;;;;5067276;28;20044;-73
2021/08/24 07:48:54;;;;;;;9.85;5.15;;;14.20;98.00;;;;;;5068280;28;20036;-73
2021/08/24 07:51:21;;;;;;;10.40;5.35;;;14.10;98.00;;;;;;5070318;28;20032;-73
2021/08/24 07:53:48;;;;;;;8.95;5.53;;;14.10;98.00;;;;;;5069707;28;20391;-73
2021/08/24 07:56:14;;;;;;;10.00;6.05;;;14.00;98.00;;;;;;5083848;28;20020;-73
2021/08/24 07:58:40;;;;;;;9.07;5.22;;;14.10;98.00;;;;;;5070757;28;20047;-73
2021/08/24 08:01:05;;;;;;;10.25;6.35;;;13.90;98.00;;;;;;5072795;28;20456;-73
2021/08/24 08:03:31;;;;;;;9.73;5.88;;;13.70;98.00;;;;;;5074503;28;20039;-73
2021/08/24 08:05:57;;;;;;;11.48;5.22;;;13.70;98.00;;;;;;5073802;28;20528;-73
2021/08/24 08:08:22;;;;;;;9.70;4.95;;;13.80;98.00;;;;;;5073167;28;20150;-72
2021/08/24 08:10:51;;;;;;;9.57;5.10;;;14.20;98.00;;;;;;5073787;28;20405;-73
2021/08/24 08:13:16;;;;;;;9.48;4.78;;;14.70;98.00;;;;;;5073686;28;20053;-73
2021/08/24 08:15:42;;;;;;;8.15;5.40;;;14.90;97.80;;;;;;5072476;28;20121;-73
2021/08/24 08:18:11;;;;;;;9.38;5.57;;;14.90;98.00;;;;;;5071359;28;20306;-73
2021/08/24 08:20:44;;;;;;;7.97;4.47;;;14.80;98.00;;;;;;5087803;28;20340;-73
2021/08/24 08:23:11;;;;;;;9.20;5.53;;;14.90;98.00;;;;;;5072623;28;20062;-73
2021/08/24 08:25:37;;;;;;;9.13;6.28;;;15.10;97.50;;;;;;5070628;28;20036;-74
2021/08/24 08:28:04;;;;;;;7.57;4.45;;;14.80;97.30;;;;;;5072114;28;20052;-73
2021/08/24 08:30:30;;;;;;;9.05;5.30;;;14.70;98.00;;;;;;5069990;28;20405;-73
2021/08/24 08:32:57;;;;;;;9.98;5.07;;;14.60;97.90;;;;;;5072503;28;20035;-72
2021/08/24 08:35:23;;;;;;;8.07;4.38;;;14.80;98.00;;;;;;5072410;28;20366;-73
2021/08/24 08:37:49;;;;;;;9.00;4.85;;;15.20;98.00;;;;;;5072359;28;20032;-73
2021/08/24 08:40:31;;;;;;;10.10;5.32;;;15.40;97.20;;;;;;5074321;28;20035;-74
2021/08/24 08:43:18;;;;;;;9.95;5.47;;;15.20;96.30;;;;;;5072102;28;20116;-73
2021/08/24 08:45:49;;;;;;;9.73;4.60;;;14.80;97.10;;;;;;5073811;28;20036;-72
2021/08/24 08:48:37;;;;;;;8.25;5.15;;;14.70;98.00;;;;;;5072952;28;20036;-72
2021/08/24 08:51:12;;;;;;;10.45;5.75;;;14.60;97.80;;;;;;5072918;28;20081;-73
2021/08/24 08:54:09;;;;;;;10.13;5.88;;;14.30;98.00;;;;;;5072197;28;20093;-73
2021/08/24 08:56:51;;;;;;;9.90;5.28;;;14.30;98.00;;;;;;5065875;28;20029;-72
2021/08/24 08:59:53;;;;;;;8.45;5.20;;;14.40;98.00;;;;;;5071276;28;20029;-72
2021/08/24 09:02:21;;;;;;;9.25;5.22;;;14.60;97.80;;;;;;5067656;28;20044;-72
2021/08/24 09:04:48;;;;;;;10.25;4.70;;;14.70;97.80;;;;;;5072038;28;20116;-72
2021/08/24 09:07:43;;;;;;;10.32;5.13;;;14.80;97.90;;;;;;5070603;28;20021;-73
2021/08/24 09:10:17;;;;;;;8.77;5.00;;;14.90;97.40;;;;;;5073239;28;20326;-72
2021/08/24 09:12:48;;;;;;;11.13;5.50;;;14.90;97.20;;;;;;5067613;28;20103;-72
2021/08/24 09:15:17;;;;;;;11.68;5.50;;;14.70;97.40;;;;;;5069072;28;20044;-72
2021/08/24 09:17:43;;;;;;;10.35;5.55;;;14.80;97.90;;;;;;5069437;28;20016;-72
2021/08/24 09:20:16;;;;;;;8.30;5.10;;;15.00;97.90;;;;;;5072384;28;20086;-72
2021/08/24 09:22:43;;;;;;;11.70;4.97;;;15.20;97.50;;;;;;5070972;28;20033;-73
2021/08/24 09:25:17;;;;;;;8.43;4.80;;;15.50;96.70;;;;;;5072790;28;20063;-73
2021/08/24 09:27:59;;;;;;;9.82;4.47;;;15.90;95.00;;;;;;5064828;28;20047;-73
2021/08/24 09:30:25;;;;;;;8.70;4.43;;;16.10;96.10;;;;;;5068148;28;20384;-72
2021/08/24 09:32:51;;;;;;;9.35;5.43;;;16.40;93.80;;;;;;5070961;28;20032;-72
2021/08/24 09:35:33;;;;;;;7.68;4.65;;;16.20;94.20;;;;;;5071692;28;20020;-74
2021/08/24 09:38:01;;;;;;;11.88;4.75;;;16.10;95.50;;;;;;5070863;28;20028;-73
2021/08/24 09:40:40;;;;;;;13.07;4.78;;;16.50;93.90;;;;;;5072561;28;20115;-72
2021/08/24 09:43:33;;;;;;;9.18;4.63;;;16.80;93.10;;;;;;5069570;28;20094;-72
2021/08/24 09:46:16;;;;;;;8.15;4.13;;;17.00;94.00;;;;;;5071215;28;20032;-72
2021/08/24 09:49:04;;;;;;;7.82;4.90;;;17.20;92.90;;;;;;5070514;28;20029;-72
2021/08/24 09:51:38;;;;;;;9.10;4.30;;;17.40;90.90;;;;;;5073809;28;20104;-72
2021/08/24 09:54:27;;;;;;;15.88;6.18;;;17.10;92.10;;;;;;5067465;28;20440;-72
2021/08/24 09:57:04;;;;;;;10.02;4.53;;;17.20;91.00;;;;;;5065424;28;20029;-73
2021/08/24 09:59:35;;;;;;;8.13;4.63;;;17.40;91.40;;;;;;5064351;28;20349;-73
2021/08/24 10:02:03;;;;;;;6.70;3.75;;;17.80;90.40;;;;;;5066793;28;20391;-72
2021/08/24 10:04:28;;;;;;;9.75;4.50;;;18.00;90.00;;;;;;5076426;28;20434;-72
2021/08/24 10:07:03;;;;;;;8.80;4.85;;;17.60;89.90;;;;;;5076694;28;20024;-73
2021/08/24 10:09:39;;;;;;;7.45;3.92;;;17.30;90.10;;;;;;5062695;28;20032;-72
2021/08/24 10:12:18;;;;;;;7.53;4.20;;;17.20;91.20;;;;;;5067030;28;20025;-72
2021/08/24 10:14:50;;;;;;;7.63;4.45;;;17.30;92.30;;;;;;5075785;28;20042;-72
2021/08/24 10:17:34;;;;;;;7.00;3.85;;;17.20;92.90;;;;;;5074277;28;20029;-72
2021/08/24 10:20:03;;;;;;;6.80;3.83;;;17.20;90.70;;;;;;5075763;28;20028;-72
2021/08/24 10:22:37;;;;;;;8.43;4.55;;;17.40;91.30;;;;;;5075935;28;20278;-72
2021/08/24 10:25:06;;;;;;;;;;;17.20;91.00;;;;;;5067936;28;20350;-72
2021/08/24 10:27:53;;;;;;;7.75;4.50;;;17.30;91.00;;;;;;5073906;28;19912;-72
2021/08/24 10:30:36;;;;;;;9.75;4.60;;;17.60;91.20;;;;;;5065336;28;20060;-73
2021/08/24 10:33:02;;;;;;;8.68;4.20;;;18.20;90.60;;;;;;5056521;28;20060;-72
2021/08/24 10:35:33;;;;;;;10.05;4.63;;;19.10;87.50;;;;;;5057845;28;20068;-74
2021/08/24 10:37:59;;;;;;;7.38;3.90;;;19.80;84.50;;;;;;5067198;28;20346;-72
2021/08/24 10:40:42;;;;;;;6.93;4.00;;;20.20;82.90;;;;;;5075423;28;20024;-73
2021/08/24 10:43:10;;;;;;;6.82;3.70;;;20.60;81.60;;;;;;5074792;28;20111;-72
2021/08/24 10:46:07;;;;;;;7.63;4.53;;;20.30;82.00;;;;;;5075844;28;20036;-72
2021/08/24 10:48:35;;;;;;;6.38;4.30;;;20.10;83.20;;;;;;5053130;28;20079;-72
2021/08/24 10:51:13;;;;;;;7.88;4.70;;;19.90;84.20;;;;;;5075328;28;20020;-72
2021/08/24 10:53:45;;;;;;;8.52;4.72;;;19.20;85.10;;;;;;5074720;28;20046;-72
2021/08/24 10:56:42;;;;;;;9.13;4.75;;;18.70;87.40;;;;;;5073857;28;20094;-72
2021/08/24 10:59:19;;;;;;;6.88;4.07;;;18.20;88.30;;;;;;5066118;28;20074;-72
2021/08/24 11:02:23;;;;;;;8.70;4.43;;;18.10;89.50;;;;;;5085509;28;20024;-73
2021/08/24 11:04:58;;;;;;;8.80;4.90;;;17.90;89.10;;;;;;5073803;28;20425;-72
2021/08/24 11:07:46;;;;;;;11.18;5.10;;;17.50;91.00;;;;;;5071344;28;20032;-74
2021/08/24 11:10:39;;;;;;;9.63;5.53;;;17.40;91.30;;;;;;5072202;28;20058;-74
2021/08/24 11:13:20;;;;;;;9.60;5.75;;;16.90;92.50;;;;;;5073730;28;20103;-72
2021/08/24 11:15:56;;;;;;;9.15;6.22;;;16.40;94.20;;;;;;5075943;28;20028;-73
2021/08/24 11:18:31;;;;;;;9.75;5.97;;;16.10;95.50;;;;;;5070864;28;20302;-73
2021/08/24 11:21:25;;;;;;;9.57;6.03;;;15.90;95.60;;;;;;5069236;28;20027;-72
2021/08/24 11:24:10;;;;;;;13.85;6.13;;;15.80;96.20;;;;;;5075640;28;20063;-73
2021/08/24 11:26:58;;;;;;;10.75;6.15;;;15.90;96.60;;;;;;5063087;28;20094;-72
2021/08/24 11:29:26;;;;;;;8.18;5.63;;;16.10;95.80;;;;;;5058466;28;20115;-72
2021/08/24 11:32:09;;;;;;;9.80;5.50;;;16.10;95.80;;;;;;5074369;28;20325;-72
2021/08/24 11:34:41;;;;;;;10.07;6.35;;;16.30;96.20;;;;;;5075000;28;20031;-72
2021/08/24 11:37:20;;;;;;;10.00;5.78;;;16.20;95.40;;;;;;5082220;28;20031;-72
2021/08/24 11:39:56;;;;;;;8.57;5.30;;;16.20;95.90;;;;;;5076711;28;20096;-72
2021/08/24 11:42:57;;;;;;;10.27;4.95;;;16.40;95.40;;;;;;5075832;28;20031;-72
2021/08/24 11:45:37;;;;;;;9.95;5.70;;;16.70;94.60;;;;;;5074063;28;20053;-73
2021/08/24 11:48:09;;;;;;;8.25;5.45;;;17.00;94.60;;;;;;5077801;28;20048;-72
2021/08/24 11:50:47;;;;;;;8.30;5.10;;;17.50;92.90;;;;;;5078034;28;20032;-72
2021/08/24 11:53:36;;;;;;;9.23;5.13;;;17.80;93.00;;;;;;5076953;28;20037;-72
2021/08/24 11:56:02;;;;;;;9.85;5.55;;;18.00;91.30;;;;;;5075124;28;20409;-72
2021/08/24 11:58:45;;;;;;;9.30;5.22;;;18.20;90.90;;;;;;5087870;28;20413;-72
2021/08/24 12:01:16;;;;;;;10.30;5.35;;;18.30;91.60;;;;;;5076248;28;20028;-72
2021/08/24 12:03:49;;;;;;;9.88;5.57;;;18.40;89.70;;;;;;5072596;28;20032;-72
2021/08/24 12:06:24;;;;;;;7.00;4.57;;;18.40;90.20;;;;;;5077280;28;20344;-72
2021/08/24 12:08:56;;;;;;;8.20;5.45;;;18.50;89.40;;;;;;5076577;28;20050;-72
2021/08/24 12:11:47;;;;;;;8.18;5.28;;;18.10;90.20;;;;;;5077648;28;20447;-72
2021/08/24 12:14:31;;;;;;;9.55;6.40;;;17.70;91.20;;;;;;5066190;28;20035;-71
2021/08/24 12:17:13;;;;;;;11.40;6.55;;;17.40;92.00;;;;;;5063305;28;20143;-72
2021/08/24 12:19:56;;;;;;;10.18;6.85;;;17.20;93.30;;;;;;5061033;28;20025;-73
2021/08/24 12:22:54;;;;;;;8.98;6.30;;;16.90;93.40;;;;;;5070741;28;20033;-73
2021/08/24 12:25:26;;;;;;;10.05;5.40;;;16.80;93.90;;;;;;5071234;28;20041;-72
2021/08/24 12:28:05;;;;;;;8.25;4.82;;;16.80;95.00;;;;;;5067030;28;20032;-73
2021/08/24 12:30:54;;;;;;;10.40;5.68;;;16.80;95.10;;;;;;5062480;28;20036;-72
2021/08/24 12:33:43;;;;;;;8.43;5.13;;;17.10;95.30;;;;;;5075945;28;20025;-72
2021/08/24 12:36:23;;;;;;;9.73;5.53;;;17.30;93.70;;;;;;5072912;28;20033;-73
2021/08/24 12:38:58;;;;;;;7.95;4.88;;;17.20;94.40;;;;;;5073732;28;20028;-72
2021/08/24 12:41:32;;;;;;;8.57;5.60;;;17.40;94.60;;;;;;5074059;28;20119;-71
2021/08/24 12:44:16;;;;;;;10.60;5.57;;;17.90;92.10;;;;;;5074087;28;20028;-71
2021/08/24 12:46:43;;;;;;;8.82;4.60;;;18.30;91.30;;;;;;5070025;28;20151;-72
2021/08/24 12:49:19;;;;;;;7.85;4.82;;;18.50;91.80;;;;;;5073256;28;20020;-72
2021/08/24 12:52:15;;;;;;;10.20;4.93;;;19.30;88.90;;;;;;5078158;28;20309;-72
2021/08/24 12:55:10;;;;;;;9.63;5.47;;;19.70;86.10;;;;;;5066451;28;20064;-72
2021/08/24 12:57:42;;;;;;;7.28;4.80;;;19.60;87.40;;;;;;5061263;28;20059;-72
2021/08/24 13:00:30;;;;;;;9.05;4.82;;;19.30;86.70;;;;;;5069685;28;20384;-72
2021/08/24 13:03:16;;;;;;;8.48;5.32;;;18.80;88.70;;;;;;5070993;28;20370;-72
2021/08/24 13:05:44;;;;;;;7.55;4.80;;;18.10;91.00;;;;;;5076655;28;20032;-72
2021/08/24 13:08:19;;;;;;;7.45;4.25;;;18.00;91.70;;;;;;5075027;28;20055;-72
2021/08/24 13:10:48;;;;;;;8.77;4.28;;;18.10;91.50;;;;;;5075445;28;20427;-72